Terminal Aerodrome Forecast
Issued by NWS Sioux Falls, SD

Home | Current Version | Previous Version | Text Only | Print | Product List | Glossary On
Versions: 1 2 3 4 5 6 7 8 9 10 11 12 13 14 15 16 17 18
000
FTUS43 KFSD 010416 AAC
TAFHON
TAF AMD
KHON 010416Z 0104/0124 35009KT 5SM -SN SCT007 OVC015
     FM010900 32009KT P6SM OVC015
     FM011600 29014G23KT P6SM BKN020
     FM011800 31020G29KT P6SM BKN035
     FM012300 32013KT P6SM SCT150=

USA.gov is the U.S. government's official web portal to all federal, state and local government web resources and services.